Time;durP1;ratioP1;P1;durP2;ratioP2;P2;SDS_P1;SDS_P2;PMS_P1;PMS_P2;Temp;Humidity;BMP_temperature;BMP_pressure;BME280_temperature;BME280_humidity;BME280_pressure;Samples;Min_cycle;Max_cycle;Signal;HPM_P1;HPM_P2
2023/04/03 00:00:40;;;;;;;4.30;2.73;;;;;;;3.95;91.03;95946.00;4390704;32;20180;-50
2023/04/03 00:03:06;;;;;;;2.70;2.60;;;;;;;3.96;91.60;95944.94;4392590;32;20357;-49
2023/04/03 00:05:32;;;;;;;2.03;1.93;;;;;;;4.06;92.17;95943.28;4393172;32;20204;-47
2023/04/03 00:07:57;;;;;;;1.13;1.13;;;;;;;4.14;92.21;95942.12;4393002;32;20239;-51
2023/04/03 00:10:22;;;;;;;1.97;1.87;;;;;;;4.31;91.98;95945.56;4393341;32;20252;-51
2023/04/03 00:12:48;;;;;;;1.10;1.10;;;;;;;4.38;91.41;95945.38;4388815;32;20188;-52
2023/04/03 00:15:13;;;;;;;1.47;1.37;;;;;;;4.23;90.76;95937.25;4372062;32;20235;-50
2023/04/03 00:17:38;;;;;;;1.90;1.80;;;;;;;4.14;91.17;95942.12;4378904;32;20204;-48
2023/04/03 00:20:05;;;;;;;1.10;1.10;;;;;;;4.21;91.46;95945.38;4375762;32;20195;-50
2023/04/03 00:22:31;;;;;;;1.37;1.37;;;;;;;4.11;91.48;95945.22;4376543;32;20215;-51
2023/04/03 00:24:56;;;;;;;1.60;1.60;;;;;;;4.10;90.52;95944.41;4379892;32;20276;-51
2023/04/03 00:27:21;;;;;;;2.63;1.33;;;;;;;4.06;91.07;95947.75;4393518;32;20233;-50
2023/04/03 00:29:47;;;;;;;1.63;1.53;;;;;;;3.95;91.50;95953.87;4378416;32;20222;-51
2023/04/03 00:32:13;;;;;;;1.53;1.43;;;;;;;3.95;91.86;95948.63;4392544;32;20220;-53
2023/04/03 00:34:38;;;;;;;2.00;1.90;;;;;;;3.95;91.79;95952.00;4387254;32;20253;-48
2023/04/03 00:37:03;;;;;;;0.90;0.90;;;;;;;4.12;90.70;95944.19;4393092;32;20188;-51
2023/04/03 00:39:29;;;;;;;3.70;1.03;;;;;;;4.00;90.72;95944.22;4378382;32;20184;-53
2023/04/03 00:41:54;;;;;;;1.60;1.60;;;;;;;4.02;90.71;95952.66;4391750;32;20202;-49
2023/04/03 00:44:43;;;;;;;1.23;1.23;;;;;;;3.82;91.31;95954.94;4386628;32;20193;-52
2023/04/03 00:47:13;;;;;;;0.90;0.90;;;;;;;3.71;91.93;95947.91;4382301;32;20204;-52
2023/04/03 00:49:39;;;;;;;1.93;1.83;;;;;;;3.74;91.58;95948.22;4375862;32;20292;-50
2023/04/03 00:52:12;;;;;;;1.00;1.00;;;;;;;3.76;91.45;95948.00;4390477;32;20295;-50
2023/04/03 00:54:39;;;;;;;2.77;1.23;;;;;;;3.71;92.09;95945.28;4377721;32;20272;-51
2023/04/03 00:57:06;;;;;;;2.57;2.37;;;;;;;3.71;92.81;95945.28;4386543;32;20288;-50
2023/04/03 00:59:34;;;;;;;1.83;1.80;;;;;;;3.61;92.61;95945.87;4378387;32;20283;-53
2023/04/03 01:02:00;;;;;;;1.63;1.53;;;;;;;3.83;92.01;95945.22;4378229;32;20313;-50
2023/04/03 01:04:40;;;;;;;1.37;1.27;;;;;;;3.87;91.05;95941.13;4372551;32;20272;-52
2023/04/03 01:07:14;;;;;;;1.93;1.83;;;;;;;3.72;91.05;95941.66;4372999;32;20322;-50
2023/04/03 01:09:40;;;;;;;1.10;1.10;;;;;;;3.75;91.68;95951.63;4377272;32;20284;-51
2023/04/03 01:12:16;;;;;;;1.07;1.07;;;;;;;3.97;91.41;95947.31;4388809;32;20315;-51
2023/04/03 01:14:41;;;;;;;2.37;1.43;;;;;;;4.00;91.82;95944.22;4388735;32;20180;-51
2023/04/03 01:17:32;;;;;;;0.97;0.97;;;;;;;3.95;91.57;95946.75;4390672;32;20280;-51
2023/04/03 01:20:31;;;;;;;1.50;1.37;;;;;;;4.08;90.78;95946.47;4385395;32;20202;-50
2023/04/03 01:23:02;;;;;;;1.73;1.63;;;;;;;4.22;90.21;95952.22;4376057;32;20299;-49
2023/04/03 01:25:28;;;;;;;2.13;1.90;;;;;;;4.05;89.69;95948.78;4390108;32;20297;-52
2023/04/03 01:27:54;;;;;;;1.60;1.50;;;;;;;4.19;90.01;95951.88;4379565;32;20299;-52
2023/04/03 01:30:23;;;;;;;1.00;0.80;;;;;;;3.93;90.00;95956.72;4387930;32;20180;-50
2023/04/03 01:32:49;;;;;;;1.17;1.17;;;;;;;3.82;90.44;95952.31;4375059;32;20192;-51
2023/04/03 01:35:14;;;;;;;1.80;1.70;;;;;;;3.77;90.85;95950.38;4382532;32;20284;-51
2023/04/03 01:37:40;;;;;;;0.97;0.97;;;;;;;3.82;91.62;95954.13;4392021;32;20211;-52
2023/04/03 01:40:06;;;;;;;1.37;1.37;;;;;;;3.89;91.65;95955.59;4374283;32;20203;-48
2023/04/03 01:42:32;;;;;;;0.77;0.77;;;;;;;4.15;90.92;95962.09;4390151;32;20248;-51
2023/04/03 01:44:57;;;;;;;1.30;1.27;;;;;;;3.93;90.06;95961.97;4387704;32;20284;-52
2023/04/03 01:47:23;;;;;;;1.30;1.30;;;;;;;3.92;90.29;95963.00;4379232;32;20180;-50
2023/04/03 01:49:48;;;;;;;1.20;1.20;;;;;;;3.88;90.74;95953.22;4390600;32;20188;-51
2023/04/03 01:52:14;;;;;;;1.77;1.63;;;;;;;3.91;90.61;95958.00;4389607;32;20196;-49
2023/04/03 01:54:39;;;;;;;0.67;0.67;;;;;;;3.68;91.58;95959.66;4385053;32;20196;-48
2023/04/03 01:57:04;;;;;;;1.00;1.00;;;;;;;3.83;92.09;95958.34;4373944;32;20184;-53
2023/04/03 01:59:30;;;;;;;1.03;1.03;;;;;;;3.88;92.30;95951.38;4389799;32;20193;-49
2023/04/03 02:01:55;;;;;;;1.47;1.43;;;;;;;3.80;92.09;95951.75;4389295;32;20203;-48
2023/04/03 02:04:21;;;;;;;2.07;1.47;;;;;;;3.98;91.63;95948.91;4387362;32;20184;-51
2023/04/03 02:06:46;;;;;;;0.83;0.83;;;;;;;4.08;91.49;95956.19;4385983;32;20250;-52
2023/04/03 02:09:12;;;;;;;1.77;1.77;;;;;;;3.99;90.54;95950.50;4391255;32;20204;-48
2023/04/03 02:11:37;;;;;;;1.47;1.37;;;;;;;4.19;90.09;95951.88;4391309;32;20206;-51
2023/04/03 02:14:02;;;;;;;1.13;1.13;;;;;;;4.30;88.97;95951.03;4374027;32;20188;-52
2023/04/03 02:16:28;;;;;;;1.43;1.43;;;;;;;4.33;88.48;95947.94;4386818;32;20200;-52
2023/04/03 02:18:54;;;;;;;0.70;0.70;;;;;;;4.23;89.11;95953.00;4394451;32;20192;-52
2023/04/03 02:21:19;;;;;;;1.40;1.37;;;;;;;4.14;89.74;95960.50;4392015;32;20192;-53
2023/04/03 02:23:45;;;;;;;0.90;0.90;;;;;;;4.32;89.41;95947.16;4388774;32;20192;-53
2023/04/03 02:26:13;;;;;;;1.03;1.03;;;;;;;4.21;89.37;95945.38;4382591;32;20264;-53
2023/04/03 02:28:39;;;;;;;1.50;1.27;;;;;;;4.19;90.18;95951.88;4382411;32;20204;-52
2023/04/03 02:31:06;;;;;;;1.10;1.10;;;;;;;4.23;89.50;95945.13;4391956;32;20284;-52
2023/04/03 02:33:31;;;;;;;1.50;1.40;;;;;;;4.21;89.73;95948.00;4387696;32;20305;-52
2023/04/03 02:35:57;;;;;;;1.47;1.47;;;;;;;4.10;89.14;95944.41;4391195;32;20288;-49
2023/04/03 02:38:24;;;;;;;1.10;1.10;;;;;;;4.13;88.75;95935.28;4394752;32;20214;-49
2023/04/03 02:40:50;;;;;;;1.77;1.67;;;;;;;4.00;89.40;95949.47;4392205;32;20203;-51
2023/04/03 02:43:16;;;;;;;1.07;1.07;;;;;;;4.04;89.48;95944.56;4393281;32;20299;-47
2023/04/03 02:45:41;;;;;;;0.63;0.47;;;;;;;4.08;89.46;95946.47;4393013;32;20362;-47
2023/04/03 02:48:06;;;;;;;4.00;1.30;;;;;;;4.22;88.63;95943.53;4370655;32;20185;-53
2023/04/03 02:50:32;;;;;;;1.10;1.10;;;;;;;4.26;87.30;95944.66;4378272;32;20184;-49
2023/04/03 02:52:57;;;;;;;0.77;0.77;;;;;;;4.39;86.88;95954.84;4374654;32;20183;-51
2023/04/03 02:55:22;;;;;;;1.30;1.30;;;;;;;4.36;86.86;95947.47;4369257;32;20185;-49
2023/04/03 02:57:48;;;;;;;1.13;1.03;;;;;;;4.22;86.39;95941.72;4374704;32;20185;-50
2023/04/03 03:00:14;;;;;;;8.17;2.23;;;;;;;4.23;87.11;95948.56;4381086;32;20259;-53
2023/04/03 03:02:40;;;;;;;1.53;1.33;;;;;;;4.28;86.89;95943.41;4375408;32;20204;-50
2023/04/03 03:05:06;;;;;;;0.27;0.27;;;;;;;4.39;86.55;95952.22;4368741;32;20296;-53
2023/04/03 03:07:31;;;;;;;1.00;1.00;;;;;;;4.37;86.99;95944.59;4387466;32;20383;-50
2023/04/03 03:09:57;;;;;;;0.80;0.80;;;;;;;4.53;86.53;95947.47;4369281;32;20334;-52
2023/04/03 03:12:24;;;;;;;2.40;1.40;;;;;;;4.06;84.98;95953.78;4377706;32;20234;-49
2023/04/03 03:14:49;;;;;;;1.33;1.23;;;;;;;4.08;85.60;95951.72;4387394;32;20203;-53
2023/04/03 03:17:15;;;;;;;0.47;0.47;;;;;;;4.17;84.67;95951.31;4381141;32;20286;-51
2023/04/03 03:19:40;;;;;;;1.03;1.00;;;;;;;4.03;85.19;95959.50;4384925;32;20180;-52
2023/04/03 03:22:06;;;;;;;0.50;0.50;;;;;;;4.06;84.77;95953.00;4382220;32;20228;-51
2023/04/03 03:24:31;;;;;;;0.50;0.50;;;;;;;3.92;84.89;95947.25;4390058;32;20225;-53
2023/04/03 03:26:56;;;;;;;0.90;0.90;;;;;;;3.97;85.40;95952.56;4378161;32;20184;-50
2023/04/03 03:29:22;;;;;;;0.83;0.83;;;;;;;3.99;85.92;95953.13;4389092;32;20188;-51
2023/04/03 03:31:47;;;;;;;0.53;0.53;;;;;;;3.96;85.66;95947.56;4387623;32;20378;-49
2023/04/03 03:34:13;;;;;;;0.40;0.40;;;;;;;3.94;84.85;95954.91;4385102;32;20184;-50
2023/04/03 03:36:38;;;;;;;1.43;1.43;;;;;;;3.82;84.80;95952.31;4386302;32;20181;-50
2023/04/03 03:39:04;;;;;;;0.90;0.90;;;;;;;3.84;85.95;95949.44;4379587;32;20206;-53
2023/04/03 03:41:29;;;;;;;0.50;0.50;;;;;;;4.07;85.99;95939.63;4371097;32;20184;-50
2023/04/03 03:43:55;;;;;;;0.73;0.73;;;;;;;3.88;86.90;95946.13;4377861;32;20180;-50
2023/04/03 03:46:20;;;;;;;1.27;1.27;;;;;;;4.03;85.39;95954.25;4380474;32;20226;-51
2023/04/03 03:48:45;;;;;;;0.93;0.93;;;;;;;4.13;85.33;95959.72;4382833;32;20224;-53
2023/04/03 03:51:11;;;;;;;0.67;0.67;;;;;;;3.99;84.56;95955.75;4370524;32;20184;-51
2023/04/03 03:53:36;;;;;;;0.60;0.60;;;;;;;3.88;84.11;95956.63;4382782;32;20212;-51
2023/04/03 03:56:02;;;;;;;0.73;0.73;;;;;;;3.84;84.82;95954.69;4385435;32;20193;-53
2023/04/03 03:58:27;;;;;;;0.50;0.50;;;;;;;3.97;85.36;95955.19;4389695;32;20188;-52
2023/04/03 04:00:52;;;;;;;0.40;0.40;;;;;;;3.99;85.51;95954.97;4373431;32;20193;-47
2023/04/03 04:03:18;;;;;;;0.77;0.77;;;;;;;4.04;84.35;95950.59;4380159;32;20267;-52
2023/04/03 04:05:44;;;;;;;0.20;0.20;;;;;;;3.79;84.92;95952.78;4373756;32;20241;-51
2023/04/03 04:08:09;;;;;;;0.63;0.63;;;;;;;3.74;85.87;95957.94;4371725;32;20199;-49
2023/04/03 04:10:37;;;;;;;0.67;0.67;;;;;;;3.80;85.61;95951.75;4390047;32;20192;-49
2023/04/03 04:13:02;;;;;;;1.10;0.77;;;;;;;3.87;85.16;95949.78;4372459;32;20181;-51
2023/04/03 04:15:28;;;;;;;0.40;0.40;;;;;;;3.81;85.49;95945.47;4384052;32;20351;-50
2023/04/03 04:17:53;;;;;;;0.90;0.90;;;;;;;3.94;85.37;95952.28;4376950;32;20292;-50
2023/04/03 04:20:19;;;;;;;0.77;0.60;;;;;;;3.97;84.30;95957.03;4387390;32;20280;-51
2023/04/03 04:22:44;;;;;;;0.67;0.67;;;;;;;3.85;84.69;95945.78;4385528;32;20246;-51
2023/04/03 04:25:10;;;;;;;0.90;0.90;;;;;;;3.98;84.98;95950.75;4386757;32;20185;-53
2023/04/03 04:27:36;;;;;;;0.70;0.70;;;;;;;3.94;83.93;95953.06;4374737;32;20183;-51
2023/04/03 04:30:02;;;;;;;1.03;1.03;;;;;;;3.98;83.91;95956.78;4376850;32;20199;-52
2023/04/03 04:32:28;;;;;;;0.80;0.80;;;;;;;3.94;83.87;95962.78;4372254;32;20300;-50
2023/04/03 04:34:53;;;;;;;0.53;0.53;;;;;;;3.87;83.78;95965.53;4382672;32;20184;-49
2023/04/03 04:37:18;;;;;;;0.77;0.77;;;;;;;3.98;84.30;95959.41;4378893;32;20319;-52
2023/04/03 04:39:43;;;;;;;0.40;0.40;;;;;;;3.82;84.62;95973.31;4385855;32;20189;-52
2023/04/03 04:42:12;;;;;;;1.60;0.83;;;;;;;3.64;85.64;95969.03;4376887;32;20193;-54
2023/04/03 04:44:40;;;;;;;1.10;1.10;;;;;;;3.69;85.54;95961.25;4382715;32;20250;-51
2023/04/03 04:47:06;;;;;;;1.10;1.10;;;;;;;3.75;85.63;95962.94;4360367;32;20295;-47
2023/04/03 04:49:31;;;;;;;4.27;1.10;;;;;;;3.83;85.66;95964.41;4387376;32;20367;-52
2023/04/03 04:51:57;;;;;;;1.10;1.10;;;;;;;3.81;86.17;95963.84;4377888;32;20180;-50
2023/04/03 04:54:22;;;;;;;4.27;0.83;;;;;;;3.96;85.56;95963.31;4377422;32;20200;-49
2023/04/03 04:56:47;;;;;;;3.80;1.00;;;;;;;3.96;85.18;95958.06;4367200;32;20212;-51
2023/04/03 04:59:13;;;;;;;0.80;0.80;;;;;;;4.18;85.36;95958.97;4374017;32;20238;-51
2023/04/03 05:01:39;;;;;;;0.70;0.70;;;;;;;4.31;84.52;95955.25;4379240;32;20193;-53
2023/04/03 05:04:04;;;;;;;1.23;0.97;;;;;;;4.13;83.57;95967.56;4372865;32;20197;-51
2023/04/03 05:06:31;;;;;;;0.83;0.83;;;;;;;4.08;82.96;95974.56;4383365;32;20207;-52
2023/04/03 05:08:57;;;;;;;0.60;0.60;;;;;;;4.05;83.31;95972.41;4393270;32;20221;-52
2023/04/03 05:11:22;;;;;;;1.50;1.40;;;;;;;3.86;83.65;95969.19;4385174;32;20334;-50
2023/04/03 05:13:47;;;;;;;0.67;0.63;;;;;;;3.85;84.17;95972.84;4387945;32;20201;-54
2023/04/03 05:16:13;;;;;;;0.97;0.97;;;;;;;4.01;84.05;95972.06;4379112;32;20193;-51
2023/04/03 05:18:38;;;;;;;0.83;0.83;;;;;;;4.04;84.05;95971.59;4389549;32;20230;-48
2023/04/03 05:21:04;;;;;;;1.30;1.30;;;;;;;4.10;84.13;95978.56;4384149;32;20303;-50
2023/04/03 05:23:29;;;;;;;0.60;0.60;;;;;;;3.91;84.61;95977.16;4372122;32;20223;-50
2023/04/03 05:25:55;;;;;;;1.73;1.60;;;;;;;3.98;84.82;95977.78;4381499;32;20346;-50
2023/04/03 05:28:20;;;;;;;1.33;1.20;;;;;;;4.04;84.14;95976.84;4381051;32;20189;-51
2023/04/03 05:30:54;;;;;;;0.80;0.80;;;;;;;4.03;83.93;95970.00;4389843;32;20184;-51
2023/04/03 05:33:19;;;;;;;0.90;0.90;;;;;;;4.08;84.39;95985.84;4382627;32;20274;-52
2023/04/03 05:35:44;;;;;;;0.90;0.90;;;;;;;4.03;84.64;95979.72;4387519;32;20277;-53
2023/04/03 05:38:10;;;;;;;8.33;1.33;;;;;;;3.98;83.62;95987.50;4388530;32;20180;-48
2023/04/03 05:40:35;;;;;;;1.03;0.73;;;;;;;4.02;82.96;95989.41;4376290;32;20227;-50
2023/04/03 05:43:00;;;;;;;0.73;0.73;;;;;;;3.89;84.47;95987.09;4384305;32;20188;-50
2023/04/03 05:45:25;;;;;;;0.90;0.90;;;;;;;3.95;83.98;95978.25;4373846;32;20189;-50
2023/04/03 05:47:51;;;;;;;0.50;0.50;;;;;;;3.89;83.36;95987.09;4390089;32;20203;-51
2023/04/03 05:50:16;;;;;;;0.57;0.57;;;;;;;3.79;84.09;95992.13;4376737;32;20250;-49
2023/04/03 05:52:45;;;;;;;0.80;0.80;;;;;;;3.64;85.24;95991.84;4365698;32;20200;-49
2023/04/03 05:55:11;;;;;;;1.03;1.03;;;;;;;3.72;84.91;95987.03;4390290;32;20204;-50
2023/04/03 05:57:36;;;;;;;1.07;0.67;;;;;;;3.91;84.25;95992.91;4378871;32;20280;-48
2023/04/03 06:00:05;;;;;;;1.30;1.20;;;;;;;3.96;83.28;95982.47;4377643;32;20237;-49
2023/04/03 06:02:31;;;;;;;1.03;1.03;;;;;;;3.97;82.97;95984.06;4377044;32;20189;-48
2023/04/03 06:04:56;;;;;;;0.93;0.93;;;;;;;3.93;83.15;95992.66;4383805;32;20280;-52
2023/04/03 06:07:23;;;;;;;1.63;1.53;;;;;;;3.90;83.71;95991.31;4385365;32;20180;-52
2023/04/03 06:09:50;;;;;;;1.47;1.07;;;;;;;3.98;84.14;95993.53;4385216;32;20265;-52
2023/04/03 06:12:17;;;;;;;0.33;0.33;;;;;;;4.10;83.58;95985.63;4385605;32;20389;-51
2023/04/03 06:14:42;;;;;;;0.50;0.50;;;;;;;4.17;82.98;95996.75;4375912;32;20344;-51
2023/04/03 06:17:08;;;;;;;0.70;0.70;;;;;;;4.12;82.91;95992.25;4387758;32;20283;-51
2023/04/03 06:19:34;;;;;;;0.40;0.40;;;;;;;4.01;82.52;96003.56;4388029;32;20260;-50
2023/04/03 06:22:00;;;;;;;0.50;0.50;;;;;;;3.91;82.97;95998.16;4366955;32;20277;-59
2023/04/03 06:24:26;;;;;;;0.97;0.97;;;;;;;3.93;83.05;96009.22;4376691;32;20219;-49
2023/04/03 06:26:52;;;;;;;0.77;0.77;;;;;;;3.66;83.62;96000.28;4363540;32;20185;-49
2023/04/03 06:29:19;;;;;;;0.80;0.80;;;;;;;3.65;84.01;96001.31;4383604;32;20232;-51
2023/04/03 06:31:45;;;;;;;3.37;1.07;;;;;;;3.69;84.49;96005.06;4383762;32;20272;-52
2023/04/03 06:34:11;;;;;;;0.73;0.73;;;;;;;3.69;84.61;96007.69;4378117;32;20318;-50
2023/04/03 06:36:37;;;;;;;0.80;0.80;;;;;;;3.80;83.86;96006.84;4371959;32;20192;-54
2023/04/03 06:39:03;;;;;;;0.90;0.90;;;;;;;3.96;83.73;96003.47;4376802;32;20310;-51
2023/04/03 06:41:29;;;;;;;0.77;0.77;;;;;;;3.92;84.02;96010.25;4385568;32;20235;-49
2023/04/03 06:43:56;;;;;;;1.13;1.13;;;;;;;3.98;83.40;96001.41;4374955;32;20371;-48
2023/04/03 06:46:22;;;;;;;5.93;1.13;;;;;;;3.98;83.27;96004.03;4387617;32;20180;-51
2023/04/03 06:48:48;;;;;;;1.10;1.07;;;;;;;4.03;82.74;96006.75;4369521;32;20341;-53
2023/04/03 06:51:18;;;;;;;0.50;0.50;;;;;;;4.09;82.08;96015.53;4386744;32;20290;-49
2023/04/03 06:53:43;;;;;;;0.80;0.80;;;;;;;4.08;82.25;96008.69;4388810;32;20276;-52
2023/04/03 06:56:09;;;;;;;0.73;0.73;;;;;;;4.14;82.11;96007.75;4385609;32;20288;-48
2023/04/03 06:58:34;;;;;;;0.90;0.90;;;;;;;4.05;81.49;96004.69;4371561;32;20288;-49
2023/04/03 07:01:00;;;;;;;0.87;0.87;;;;;;;4.13;82.17;96006.97;4374737;32;20276;-56
2023/04/03 07:03:25;;;;;;;0.70;0.70;;;;;;;3.99;80.94;96013.50;4388111;32;20237;-52
2023/04/03 07:05:50;;;;;;;0.70;0.70;;;;;;;3.97;81.68;96015.56;4376836;32;20206;-53
2023/04/03 07:08:16;;;;;;;0.37;0.37;;;;;;;4.16;81.81;96023.28;4390977;32;20185;-48
2023/04/03 07:10:41;;;;;;;2.97;2.77;;;;;;;4.26;81.51;96024.25;4379639;32;20188;-52
2023/04/03 07:13:06;;;;;;;0.90;0.90;;;;;;;4.32;80.93;96027.75;4385419;32;20219;-51
2023/04/03 07:15:33;;;;;;;2.93;1.40;;;;;;;4.42;81.25;96025.28;4375757;32;20176;-48
2023/04/03 07:17:58;;;;;;;0.73;0.73;;;;;;;4.44;81.15;96025.84;4394183;32;20245;-53
2023/04/03 07:20:23;;;;;;;1.17;1.07;;;;;;;4.55;81.04;96022.37;4388681;32;20291;-52
2023/04/03 07:22:49;;;;;;;0.67;0.67;;;;;;;4.69;80.13;96031.53;4386169;32;20185;-52
2023/04/03 07:25:14;;;;;;;1.53;0.93;;;;;;;4.63;79.37;96032.47;4392580;32;20268;-49
2023/04/03 07:27:40;;;;;;;1.70;1.37;;;;;;;4.65;79.02;96030.41;4391759;32;20270;-51
2023/04/03 07:30:06;;;;;;;1.40;1.30;;;;;;;4.72;79.42;96036.31;4393490;32;20214;-49
2023/04/03 07:32:31;;;;;;;0.90;0.90;;;;;;;4.63;79.71;96035.09;4393038;32;20209;-53
2023/04/03 07:34:57;;;;;;;4.30;1.27;;;;;;;4.51;79.30;96038.84;4393721;32;20284;-53
2023/04/03 07:37:22;;;;;;;0.77;0.77;;;;;;;4.55;79.44;96039.97;4388186;32;20236;-52
2023/04/03 07:39:48;;;;;;;1.33;1.23;;;;;;;4.52;78.76;96046.50;4370304;32;20257;-51
2023/04/03 07:42:13;;;;;;;1.00;1.00;;;;;;;4.33;79.46;96050.38;4368123;32;20185;-50
2023/04/03 07:44:39;;;;;;;0.97;0.97;;;;;;;4.21;80.22;96055.66;4390164;32;20333;-53
2023/04/03 07:47:04;;;;;;;0.73;0.73;;;;;;;4.22;79.62;96061.69;4386341;32;20218;-53
2023/04/03 07:49:29;;;;;;;2.03;1.53;;;;;;;4.21;79.88;96055.66;4345107;32;20182;-54
2023/04/03 07:51:55;;;;;;;1.70;1.60;;;;;;;4.08;80.47;96067.25;4358912;32;20184;-52
2023/04/03 07:54:20;;;;;;;1.33;1.33;;;;;;;4.04;81.02;96066.09;4392193;32;20273;-51
2023/04/03 07:56:45;;;;;;;0.83;0.83;;;;;;;4.06;81.80;96060.63;4386714;32;20184;-50
2023/04/03 07:59:11;;;;;;;1.53;1.10;;;;;;;4.19;81.11;96070.03;4390835;32;20207;-51
2023/04/03 08:01:37;;;;;;;1.97;1.80;;;;;;;4.22;80.53;96072.19;4389715;32;20180;-52
2023/04/03 08:04:02;;;;;;;1.60;1.50;;;;;;;4.32;80.83;96061.91;4391517;32;20237;-51
2023/04/03 08:06:29;;;;;;;0.90;0.90;;;;;;;4.34;80.65;96065.09;4377604;32;20203;-52
2023/04/03 08:08:55;;;;;;;1.17;1.17;;;;;;;4.25;80.87;96069.91;4380681;32;20195;-51
2023/04/03 08:11:21;;;;;;;1.53;1.50;;;;;;;4.22;80.83;96067.75;4384592;32;20371;-54
2023/04/03 08:13:47;;;;;;;1.27;1.27;;;;;;;4.31;81.41;96070.81;4373988;32;20345;-50
2023/04/03 08:16:17;;;;;;;1.17;1.17;;;;;;;4.42;81.04;96068.13;4385411;32;20292;-52
2023/04/03 08:18:43;;;;;;;1.77;1.67;;;;;;;4.16;82.43;96060.81;4378482;32;20215;-52
2023/04/03 08:21:10;;;;;;;1.30;1.30;;;;;;;4.31;82.55;96065.56;4381958;32;20281;-52
2023/04/03 08:23:36;;;;;;;0.90;0.90;;;;;;;4.34;81.70;96070.34;4368643;32;20248;-52
2023/04/03 08:26:18;;;;;;;2.80;1.77;;;;;;;4.35;81.90;96070.13;4382105;32;20276;-51
2023/04/03 08:28:44;;;;;;;5.30;1.23;;;;;;;4.35;81.10;96061.44;4365104;32;20237;-51
2023/04/03 08:31:13;;;;;;;1.33;1.23;;;;;;;4.39;81.28;96063.34;4370524;32;20280;-52
2023/04/03 08:33:39;;;;;;;1.83;1.53;;;;;;;4.59;80.86;96067.34;4389870;32;20263;-49
2023/04/03 08:36:07;;;;;;;1.43;1.43;;;;;;;4.52;80.30;96062.25;4388237;32;20299;-53
2023/04/03 08:38:36;;;;;;;1.47;1.17;;;;;;;4.80;79.54;96064.81;4379558;32;20450;-53
2023/04/03 08:41:15;;;;;;;2.63;1.60;;;;;;;4.84;79.04;96070.41;4373745;32;20281;-53
2023/04/03 08:43:52;;;;;;;1.57;1.47;;;;;;;4.96;78.95;96065.09;4376072;32;20298;-51
2023/04/03 08:46:21;;;;;;;1.17;1.17;;;;;;;5.02;77.90;96066.75;4372663;32;20284;-52
2023/04/03 08:48:48;;;;;;;1.73;1.63;;;;;;;4.80;77.42;96070.06;4380044;32;20371;-54
2023/04/03 08:51:16;;;;;;;1.40;1.40;;;;;;;4.67;78.17;96080.09;4374890;32;20280;-52
2023/04/03 08:53:53;;;;;;;1.10;1.10;;;;;;;4.61;78.34;96079.22;4381966;32;20296;-52
2023/04/03 08:56:18;;;;;;;1.90;1.20;;;;;;;4.67;78.10;96078.28;4375167;32;20319;-50
2023/04/03 08:59:00;;;;;;;1.00;1.00;;;;;;;4.76;78.59;96081.31;4374915;32;20371;-48
2023/04/03 09:01:36;;;;;;;1.87;1.77;;;;;;;4.60;78.32;96079.44;4374746;32;20212;-53
2023/04/03 09:04:09;;;;;;;1.90;1.80;;;;;;;4.57;78.26;96075.50;4381868;32;20283;-51
2023/04/03 09:06:36;;;;;;;1.27;1.27;;;;;;;4.37;79.32;96080.34;4369028;32;20306;-54
2023/04/03 09:09:20;;;;;;;1.23;1.23;;;;;;;4.48;79.31;96090.03;4376470;32;20296;-56
2023/04/03 09:12:09;;;;;;;1.30;1.30;;;;;;;4.51;79.08;96084.31;4383520;32;20390;-53
2023/04/03 09:14:51;;;;;;;0.83;0.83;;;;;;;4.68;77.88;96087.75;4380604;32;20284;-52
2023/04/03 09:17:41;;;;;;;1.10;1.10;;;;;;;4.86;77.39;96084.09;4375943;32;20285;-51
2023/04/03 09:20:35;;;;;;;0.50;0.50;;;;;;;4.84;76.13;96081.72;4389645;32;20272;-54
2023/04/03 09:23:07;;;;;;;2.90;1.10;;;;;;;5.03;76.45;96077.03;4371606;32;20370;-52
2023/04/03 09:25:37;;;;;;;1.07;1.07;;;;;;;5.02;76.09;96078.06;4383740;32;20276;-49
2023/04/03 09:28:04;;;;;;;1.27;1.27;;;;;;;4.98;75.58;96078.78;4380925;32;20351;-52
2023/04/03 09:30:30;;;;;;;0.93;0.93;;;;;;;4.96;76.26;96078.22;4371822;32;20287;-51
2023/04/03 09:32:57;;;;;;;1.87;1.77;;;;;;;5.25;75.30;96081.56;4380067;32;20299;-49
2023/04/03 09:35:26;;;;;;;2.30;2.10;;;;;;;5.18;75.26;96077.28;4385864;32;20320;-49
2023/04/03 09:38:12;;;;;;;1.10;1.10;;;;;;;5.20;75.03;96078.88;4383962;32;20359;-51
2023/04/03 09:40:43;;;;;;;1.13;1.07;;;;;;;5.27;75.30;96074.22;4386864;32;20312;-52
2023/04/03 09:43:30;;;;;;;1.23;1.13;;;;;;;5.23;75.29;96079.16;4371417;32;20331;-52
2023/04/03 09:46:16;;;;;;;1.20;0.93;;;;;;;5.10;74.72;96079.50;4375166;32;20276;-52
2023/04/03 09:48:50;;;;;;;7.20;1.47;;;;;;;5.24;74.57;96080.75;4387137;32;20302;-50
2023/04/03 09:51:15;;;;;;;1.23;1.23;;;;;;;5.33;75.04;96079.31;4383350;32;20280;-50
2023/04/03 09:53:43;;;;;;;0.90;0.90;;;;;;;5.19;74.75;96083.34;4376339;32;20374;-50
2023/04/03 09:56:22;;;;;;;1.03;1.03;;;;;;;5.30;75.54;96074.53;4386091;32;20239;-52
2023/04/03 09:58:50;;;;;;;0.47;0.47;;;;;;;5.34;75.22;96064.34;4380481;32;20330;-49
2023/04/03 10:01:28;;;;;;;0.87;0.87;;;;;;;5.32;73.92;96072.47;4385477;32;20295;-53
2023/04/03 10:04:13;;;;;;;0.50;0.50;;;;;;;5.22;72.48;96077.56;4375600;32;20275;-51
2023/04/03 10:06:46;;;;;;;2.10;1.13;;;;;;;5.20;74.07;96077.00;4370540;32;20308;-51
2023/04/03 10:09:20;;;;;;;1.47;1.37;;;;;;;5.25;73.01;96077.09;4380321;32;20303;-49
2023/04/03 10:12:05;;;;;;;0.80;0.80;;;;;;;5.29;71.67;96072.94;4374014;32;20279;-50
2023/04/03 10:14:32;;;;;;;0.90;0.77;;;;;;;5.35;71.79;96073.81;4385341;32;20302;-50
2023/04/03 10:17:24;;;;;;;0.83;0.83;;;;;;;5.38;72.17;96070.72;4385908;32;20284;-49
2023/04/03 10:20:02;;;;;;;1.13;1.13;;;;;;;5.37;72.74;96067.28;4379016;32;20284;-50
2023/04/03 10:22:36;;;;;;;1.93;1.27;;;;;;;5.44;73.56;96073.16;4382608;32;20285;-52
2023/04/03 10:25:34;;;;;;;0.87;0.87;;;;;;;5.30;74.37;96077.16;4384703;32;20355;-49
2023/04/03 10:28:29;;;;;;;1.90;1.43;;;;;;;5.22;74.80;96074.13;4389859;32;20320;-50
2023/04/03 10:31:11;;;;;;;1.43;1.43;;;;;;;4.99;77.39;96080.38;4369912;32;20284;-49
2023/04/03 10:33:45;;;;;;;5.80;1.70;;;;;;;4.72;78.02;96073.13;4382501;32;20289;-51
2023/04/03 10:36:51;;;;;;;2.10;1.70;;;;;;;4.76;79.48;96074.25;4386085;32;20351;-50
2023/04/03 10:39:32;;;;;;;0.80;0.80;;;;;;;4.92;78.60;96071.84;4387129;32;20280;-48
2023/04/03 10:42:07;;;;;;;0.80;0.80;;;;;;;4.86;78.40;96072.78;4383981;32;20292;-49
2023/04/03 10:44:50;;;;;;;1.53;1.37;;;;;;;4.79;78.79;96072.94;4385416;32;20319;-50
2023/04/03 10:47:24;;;;;;;0.90;0.90;;;;;;;4.67;78.14;96075.66;4372264;32;20292;-49
2023/04/03 10:50:12;;;;;;;0.70;0.70;;;;;;;4.69;78.78;96073.59;4384522;32;20310;-52
2023/04/03 10:52:53;;;;;;;0.90;0.90;;;;;;;4.52;81.00;96087.72;4385706;32;20296;-51
2023/04/03 10:55:34;;;;;;;1.13;1.13;;;;;;;4.38;83.07;96084.56;4392491;32;20327;-48
2023/04/03 10:58:01;;;;;;;1.47;1.47;;;;;;;4.34;83.03;96093.97;4390059;32;20356;-49
2023/04/03 11:00:47;;;;;;;1.10;1.10;;;;;;;4.12;85.24;96092.00;4390592;32;20299;-53
2023/04/03 11:03:29;;;;;;;0.87;0.87;;;;;;;4.00;85.59;96091.22;4383912;32;20287;-52
2023/04/03 11:05:55;;;;;;;0.40;0.40;;;;;;;4.12;86.03;96092.00;4385236;32;20322;-52
2023/04/03 11:08:39;;;;;;;0.90;0.90;;;;;;;3.90;85.34;96088.41;4393168;32;20367;-52
2023/04/03 11:11:30;;;;;;;0.70;0.70;;;;;;;4.04;85.53;96094.97;4391000;32;20214;-53
2023/04/03 11:14:05;;;;;;;0.47;0.47;;;;;;;4.07;83.75;96081.41;4380774;32;20280;-53
2023/04/03 11:16:37;;;;;;;2.87;1.37;;;;;;;4.14;82.42;96083.91;4388556;32;20313;-50
2023/04/03 11:19:10;;;;;;;2.23;1.23;;;;;;;4.14;81.78;96076.00;4377970;32;20280;-52
2023/04/03 11:21:43;;;;;;;0.77;0.77;;;;;;;4.34;82.22;96070.34;4384562;32;20341;-50
2023/04/03 11:24:20;;;;;;;1.03;1.03;;;;;;;4.42;80.61;96073.38;4378795;32;20320;-50
2023/04/03 11:26:49;;;;;;;1.03;1.03;;;;;;;4.58;80.17;96069.19;4392349;32;20343;-51
2023/04/03 11:29:21;;;;;;;0.80;0.80;;;;;;;4.78;80.14;96066.88;4378438;32;20364;-53
2023/04/03 11:32:11;;;;;;;0.87;0.87;;;;;;;4.86;77.94;96063.09;4387713;32;20277;-51
2023/04/03 11:34:44;;;;;;;0.73;0.73;;;;;;;4.84;75.46;96065.94;4390763;32;20334;-51
2023/04/03 11:37:35;;;;;;;2.73;1.47;;;;;;;4.89;75.07;96062.59;4377660;32;20276;-49
2023/04/03 11:40:14;;;;;;;1.27;1.27;;;;;;;4.88;75.24;96068.09;4381587;32;20417;-51
2023/04/03 11:42:42;;;;;;;1.97;0.93;;;;;;;4.88;73.79;96061.00;4393614;32;20321;-51
2023/04/03 11:45:26;;;;;;;0.57;0.57;;;;;;;4.97;72.20;96056.16;4387565;32;20292;-50
2023/04/03 11:47:55;;;;;;;1.10;1.10;;;;;;;4.96;70.65;96065.09;4385370;32;20263;-51
2023/04/03 11:50:33;;;;;;;0.27;0.27;;;;;;;4.83;71.01;96053.84;4385771;32;20310;-51